Time;durP1;ratioP1;P1;durP2;ratioP2;P2;SDS_P1;SDS_P2;PMS_P1;PMS_P2;Temp;Humidity;BMP_temperature;BMP_pressure;BME280_temperature;BME280_humidity;BME280_pressure;Samples;Min_cycle;Max_cycle;Signal;HPM_P1;HPM_P2
2022/02/22 00:01:34;;;;;;;24.95;15.32;;;;;;;2.02;100.00;100289.06;1653779;86;21155;-79
2022/02/22 00:04:01;;;;;;;24.02;15.80;;;;;;;2.00;100.00;100299.38;1653938;85;21534;-80
2022/02/22 00:06:29;;;;;;;24.10;16.27;;;;;;;1.97;100.00;100294.40;1651300;85;21127;-80
2022/02/22 00:08:57;;;;;;;22.50;14.65;;;;;;;1.96;100.00;100293.20;1652622;85;21037;-80
2022/02/22 00:11:25;;;;;;;24.65;15.10;;;;;;;1.92;100.00;100300.63;1634085;86;21097;-81
2022/02/22 00:13:53;;;;;;;26.90;16.12;;;;;;;1.91;100.00;100304.09;1653237;85;21069;-80
2022/02/22 00:16:21;;;;;;;25.40;16.40;;;;;;;1.88;100.00;100299.47;1658166;85;21114;-80
2022/02/22 00:18:48;;;;;;;26.93;14.95;;;;;;;1.85;100.00;100293.20;1628364;86;21792;-79
2022/02/22 00:21:15;;;;;;;23.32;14.47;;;;;;;1.84;100.00;100291.53;1656649;85;21596;-80
2022/02/22 00:23:41;;;;;;;27.85;15.50;;;;;;;1.85;100.00;100293.20;1605498;88;21142;-82
2022/02/22 00:26:09;;;;;;;33.00;14.87;;;;;;;1.89;100.00;100286.20;1652172;85;21054;-80
2022/02/22 00:28:36;;;;;;;22.87;15.13;;;;;;;1.89;100.00;100283.17;1644629;87;21064;-80
2022/02/22 00:31:03;;;;;;;24.63;15.23;;;;;;;1.88;100.00;100282.78;1644567;87;21924;-79
2022/02/22 00:33:31;;;;;;;24.50;14.80;;;;;;;1.88;100.00;100282.78;1644792;85;21056;-80
2022/02/22 00:35:58;;;;;;;22.42;14.07;;;;;;;1.91;100.00;100283.55;1644421;87;22168;-79
2022/02/22 00:38:25;;;;;;;24.43;15.10;;;;;;;1.92;100.00;100282.22;1644789;85;21064;-79
2022/02/22 00:40:52;;;;;;;23.05;15.00;;;;;;;1.91;100.00;100288.26;1644870;87;21539;-81
2022/02/22 00:43:19;;;;;;;21.73;14.30;;;;;;;1.90;100.00;100284.02;1644914;87;22043;-80
2022/02/22 00:45:46;;;;;;;26.33;14.98;;;;;;;1.88;100.00;100284.06;1644743;87;21495;-80
2022/02/22 00:48:13;;;;;;;24.77;15.88;;;;;;;1.86;100.00;100282.47;1644842;85;21159;-79
2022/02/22 00:50:40;;;;;;;24.85;14.83;;;;;;;1.80;100.00;100278.47;1644907;87;21115;-79
2022/02/22 00:53:07;;;;;;;27.73;16.10;;;;;;;1.75;100.00;100285.52;1644682;87;21731;-79
2022/02/22 00:55:35;;;;;;;26.12;15.60;;;;;;;1.70;100.00;100277.19;1644805;85;21148;-81
2022/02/22 00:58:02;;;;;;;24.98;15.88;;;;;;;1.70;100.00;100277.19;1644277;85;21067;-80
2022/02/22 01:00:29;;;;;;;26.55;15.58;;;;;;;1.70;100.00;100274.63;1645010;85;21079;-81
2022/02/22 01:02:56;;;;;;;24.92;16.20;;;;;;;1.69;100.00;100269.10;1644630;85;21540;-79
2022/02/22 01:05:23;;;;;;;23.27;15.05;;;;;;;1.67;100.00;100264.05;1644818;85;21539;-79
2022/02/22 01:07:50;;;;;;;25.15;14.53;;;;;;;1.66;100.00;100256.39;1644711;85;21150;-81
2022/02/22 01:10:17;;;;;;;23.47;14.47;;;;;;;1.68;100.00;100258.45;1617279;87;21044;-81
2022/02/22 01:12:44;;;;;;;28.23;15.48;;;;;;;1.68;100.00;100250.75;1644615;87;21542;-81
2022/02/22 01:15:11;;;;;;;24.12;14.60;;;;;;;1.67;100.00;100249.08;1644867;87;21885;-83
2022/02/22 01:17:40;;;;;;;30.02;15.93;;;;;;;1.63;100.00;100250.95;1644520;85;21601;-81
2022/02/22 01:20:09;;;;;;;24.32;15.10;;;;;;;1.62;100.00;100252.30;1644412;85;21181;-81
2022/02/22 01:22:38;;;;;;;26.55;15.15;;;;;;;1.62;100.00;100252.30;1644711;87;21025;-79
2022/02/22 01:25:06;;;;;;;23.95;15.88;;;;;;;1.59;100.00;100248.14;1644859;86;21025;-80
2022/02/22 01:27:36;;;;;;;28.42;15.45;;;;;;;1.56;100.00;100246.98;1616948;85;21072;-79
2022/02/22 01:30:07;;;;;;;27.73;15.65;;;;;;;1.51;100.00;100248.92;1644748;87;21140;-83
2022/02/22 01:32:36;;;;;;;27.90;16.05;;;;;;;1.45;100.00;100246.59;1644553;85;21995;-80
2022/02/22 01:35:06;;;;;;;29.25;15.00;;;;;;;1.45;100.00;100246.59;1644440;85;20985;-80
2022/02/22 01:37:35;;;;;;;25.77;15.90;;;;;;;1.43;100.00;100240.72;1616801;87;21059;-79
2022/02/22 01:40:04;;;;;;;27.05;14.55;;;;;;;1.39;100.00;100243.87;1645009;87;21553;-82
2022/02/22 01:42:33;;;;;;;23.87;14.35;;;;;;;1.38;100.00;100246.05;1645007;85;21087;-79
2022/02/22 01:45:01;;;;;;;23.00;14.98;;;;;;;1.39;100.00;100248.54;1644781;85;21965;-79
2022/02/22 01:47:28;;;;;;;28.92;14.80;;;;;;;1.40;100.00;100254.06;1644567;87;21042;-79
2022/02/22 01:49:56;;;;;;;26.27;15.93;;;;;;;1.44;100.00;100252.19;1616658;87;21073;-79
2022/02/22 01:52:22;;;;;;;25.32;15.35;;;;;;;1.48;100.00;100258.88;1644624;85;21067;-80
2022/02/22 01:54:50;;;;;;;26.77;16.17;;;;;;;1.49;100.00;100264.83;1645168;85;21044;-81
2022/02/22 01:57:18;;;;;;;25.32;14.90;;;;;;;1.49;100.00;100266.11;1644761;87;21172;-80
2022/02/22 01:59:49;;;;;;;23.73;14.83;;;;;;;1.48;100.00;100264.01;1644679;86;21534;-79
2022/02/22 02:02:16;;;;;;;23.52;14.75;;;;;;;1.50;100.00;100267.32;1644849;87;21057;-82
2022/02/22 02:04:43;;;;;;;28.27;14.78;;;;;;;1.50;100.00;100264.75;1644479;87;21533;-82
2022/02/22 02:07:10;;;;;;;25.30;14.98;;;;;;;1.54;100.00;100260.32;1644266;87;21096;-82
2022/02/22 02:09:38;;;;;;;24.07;14.85;;;;;;;1.54;100.00;100260.32;1643949;86;21203;-80
2022/02/22 02:12:06;;;;;;;29.10;16.50;;;;;;;1.56;100.00;100256.78;1644668;86;21083;-80
2022/02/22 02:14:33;;;;;;;21.90;14.07;;;;;;;1.58;100.00;100254.17;1644616;87;21043;-80
2022/02/22 02:17:01;;;;;;;28.42;16.02;;;;;;;1.55;100.00;100248.73;1616880;87;21088;-81
2022/02/22 02:19:32;;;;;;;27.55;16.55;;;;;;;1.51;100.00;100243.33;1644539;87;21147;-81
2022/02/22 02:21:59;;;;;;;24.95;15.45;;;;;;;1.43;100.00;100247.14;1644732;87;21824;-79
2022/02/22 02:24:27;;;;;;;25.12;14.98;;;;;;;1.39;100.00;100245.16;1653041;84;21074;-80
2022/02/22 02:26:56;;;;;;;27.52;15.55;;;;;;;1.36;100.00;100244.81;1644420;87;21598;-79
2022/02/22 02:29:27;;;;;;;26.27;14.23;;;;;;;1.30;100.00;100242.98;1644333;85;21048;-82
2022/02/22 02:31:57;;;;;;;26.42;15.45;;;;;;;1.26;100.00;100240.98;1644417;87;21079;-80
2022/02/22 02:34:29;;;;;;;27.05;14.78;;;;;;;1.27;100.00;100246.51;1644577;87;21136;-80
2022/02/22 02:36:56;;;;;;;24.40;15.23;;;;;;;1.31;100.00;100255.73;1644360;87;21092;-80
2022/02/22 02:39:24;;;;;;;27.42;15.03;;;;;;;1.31;100.00;100255.73;1654514;85;21043;-80
2022/02/22 02:41:51;;;;;;;23.57;14.33;;;;;;;1.34;100.00;100263.31;1644472;87;21140;-80
2022/02/22 02:44:22;;;;;;;23.30;13.60;;;;;;;1.35;100.00;100260.28;1658298;85;21106;-80
2022/02/22 02:46:50;;;;;;;24.92;13.80;;;;;;;1.35;100.00;100267.55;1626099;86;21796;-80
2022/02/22 02:49:18;;;;;;;24.75;14.23;;;;;;;1.31;100.00;100270.30;1658810;85;21509;-80
2022/02/22 02:51:46;;;;;;;25.55;14.43;;;;;;;1.31;100.00;100270.30;1625776;87;21063;-80
2022/02/22 02:54:13;;;;;;;23.73;14.07;;;;;;;1.32;100.00;100269.41;1656780;85;21094;-80
2022/02/22 02:56:41;;;;;;;24.43;14.13;;;;;;;1.30;100.00;100273.77;1625297;86;21086;-80
2022/02/22 02:59:10;;;;;;;27.07;15.25;;;;;;;1.26;100.00;100263.61;1644503;85;21137;-80
2022/02/22 03:01:42;;;;;;;22.60;13.83;;;;;;;1.23;100.00;100259.92;1616688;86;21073;-81
2022/02/22 03:04:11;;;;;;;22.48;14.15;;;;;;;1.17;100.00;100249.06;1592314;87;21718;-80
2022/02/22 03:06:38;;;;;;;27.62;14.80;;;;;;;1.12;100.00;100254.84;1613876;86;21178;-80
2022/02/22 03:09:05;;;;;;;23.70;14.23;;;;;;;1.01;100.00;100253.98;1584789;87;21798;-80
2022/02/22 03:11:33;;;;;;;20.80;14.18;;;;;;;1.01;100.00;100253.98;1633987;86;21773;-81
2022/02/22 03:14:00;;;;;;;24.18;14.65;;;;;;;0.99;100.00;100259.65;1622866;87;21590;-81
2022/02/22 03:16:27;;;;;;;22.93;13.95;;;;;;;0.95;100.00;100252.53;1614010;87;21077;-84
2022/02/22 03:18:54;;;;;;;21.85;13.68;;;;;;;0.91;100.00;100246.70;1616971;87;21086;-82
2022/02/22 03:21:22;;;;;;;22.13;14.20;;;;;;;0.85;100.00;100250.77;1607959;86;21171;-82
2022/02/22 03:23:49;;;;;;;23.02;13.60;;;;;;;0.81;100.00;100259.48;1614395;86;21174;-84
2022/02/22 03:26:16;;;;;;;19.80;12.58;;;;;;;0.77;100.00;100260.06;1617841;87;21106;-83
2022/02/22 03:28:43;;;;;;;19.62;12.93;;;;;;;0.77;100.00;100259.20;1614027;87;21051;-83
2022/02/22 03:31:10;;;;;;;18.82;12.65;;;;;;;0.79;100.00;100259.98;1633428;87;21568;-82
2022/02/22 03:33:39;;;;;;;21.85;14.03;;;;;;;0.81;100.00;100260.77;1635352;86;21098;-81
2022/02/22 03:36:06;;;;;;;24.00;13.38;;;;;;;0.85;100.00;100264.05;1634875;86;21143;-80
2022/02/22 03:38:33;;;;;;;18.82;12.50;;;;;;;0.85;100.00;100264.86;1625196;86;21153;-80
2022/02/22 03:41:02;;;;;;;21.93;13.05;;;;;;;0.85;100.00;100257.17;1625837;85;21029;-81
2022/02/22 03:43:31;;;;;;;19.12;12.33;;;;;;;0.83;100.00;100265.39;1624795;87;21122;-82
2022/02/22 03:46:00;;;;;;;20.00;12.25;;;;;;;0.82;100.00;100267.57;1643370;85;21567;-79
2022/02/22 03:48:27;;;;;;;20.02;12.78;;;;;;;0.81;100.00;100265.05;1642667;87;21874;-81
2022/02/22 03:50:56;;;;;;;19.45;13.15;;;;;;;0.83;100.00;100266.68;1654253;84;21032;-80
2022/02/22 03:53:24;;;;;;;20.20;12.45;;;;;;;0.84;100.00;100268.32;1639169;85;21046;-80
2022/02/22 03:55:51;;;;;;;17.70;11.90;;;;;;;0.86;100.00;100270.38;1626698;87;21159;-81
2022/02/22 03:58:18;;;;;;;18.48;13.35;;;;;;;0.87;100.00;100269.48;1627483;86;21594;-84
2022/02/22 04:00:45;;;;;;;24.15;15.00;;;;;;;0.88;100.00;100261.37;1626564;85;21202;-82
2022/02/22 04:03:12;;;;;;;26.23;16.00;;;;;;;0.90;100.00;100257.84;1630842;87;21694;-82
2022/02/22 04:05:42;;;;;;;27.70;16.85;;;;;;;0.92;100.00;100271.88;1624451;86;21129;-81
2022/02/22 04:08:10;;;;;;;34.55;21.60;;;;;;;0.95;100.00;100274.32;1630388;86;21054;-79
2022/02/22 04:10:37;;;;;;;33.40;21.20;;;;;;;0.98;100.00;100266.95;1626369;86;21535;-79
2022/02/22 04:13:04;;;;;;;34.65;20.77;;;;;;;1.01;100.00;100269.37;1626814;87;21834;-79
2022/02/22 04:15:31;;;;;;;30.20;20.80;;;;;;;1.03;100.00;100277.41;1624091;86;21141;-78
2022/02/22 04:17:59;;;;;;;34.18;21.42;;;;;;;1.04;100.00;100276.95;1653473;85;21022;-78
2022/02/22 04:20:26;;;;;;;38.98;22.65;;;;;;;1.08;100.00;100275.94;1620725;86;21104;-80
2022/02/22 04:22:53;;;;;;;36.85;23.15;;;;;;;1.09;100.00;100283.99;1626620;87;21163;-79
2022/02/22 04:25:21;;;;;;;41.35;27.07;;;;;;;1.08;100.00;100280.61;1609776;87;21136;-79
2022/02/22 04:27:48;;;;;;;43.02;27.40;;;;;;;1.08;100.00;100280.61;1629464;86;21038;-79
2022/02/22 04:30:15;;;;;;;47.93;28.55;;;;;;;1.07;100.00;100281.50;1618141;88;21063;-80
2022/02/22 04:32:43;;;;;;;49.35;29.77;;;;;;;1.06;100.00;100278.55;1619125;85;21094;-82
2022/02/22 04:35:11;;;;;;;53.23;30.35;;;;;;;1.03;100.00;100277.84;1626220;87;21037;-79
2022/02/22 04:37:39;;;;;;;55.58;31.75;;;;;;;0.98;100.00;100279.31;1630182;85;21177;-79
2022/02/22 04:40:07;;;;;;;58.48;31.95;;;;;;;0.93;100.00;100276.92;1638926;86;21040;-80
2022/02/22 04:42:35;;;;;;;57.17;30.48;;;;;;;0.93;100.00;100280.77;1634132;83;21067;-80
2022/02/22 04:45:02;;;;;;;51.42;29.15;;;;;;;0.91;100.00;100291.56;1629324;85;21409;-79
2022/02/22 04:47:30;;;;;;;59.73;32.95;;;;;;;0.89;100.00;100293.77;1597098;88;21332;-79
2022/02/22 04:49:57;;;;;;;50.17;28.30;;;;;;;0.88;100.00;100295.52;1624621;86;21637;-78
2022/02/22 04:52:24;;;;;;;84.17;31.42;;;;;;;0.89;100.00;100297.63;1602292;87;21112;-77
2022/02/22 04:54:51;;;;;;;59.67;30.60;;;;;;;1.25;100.00;100300.89;1645071;85;21544;-80
2022/02/22 04:57:18;;;;;;;66.53;30.37;;;;;;;2.19;100.00;100294.72;1655519;85;21079;-79
2022/02/22 04:59:47;;;;;;;65.50;32.58;;;;;;;2.81;100.00;100306.84;1651688;85;21035;-77
2022/02/22 05:02:13;;;;;;;78.50;34.78;;;;;;;3.03;100.00;100313.52;1652999;85;21143;-77
2022/02/22 05:04:41;;;;;;;60.15;32.30;;;;;;;3.14;100.00;100307.41;1653661;85;21056;-86
2022/02/22 05:07:08;;;;;;;65.97;31.87;;;;;;;3.47;100.00;100306.65;1653051;85;21117;-77
2022/02/22 05:09:36;;;;;;;69.55;32.13;;;;;;;3.65;100.00;100312.22;1649047;85;21100;-79
2022/02/22 05:12:04;;;;;;;50.28;27.80;;;;;;;3.55;100.00;100313.97;1645304;86;21100;-77
2022/02/22 05:14:32;;;;;;;57.00;30.05;;;;;;;3.59;100.00;100309.49;1657856;83;22025;-77
2022/02/22 05:16:58;;;;;;;59.03;31.02;;;;;;;3.37;100.00;100311.87;1666923;83;21055;-78
2022/02/22 05:19:26;;;;;;;53.45;29.85;;;;;;;3.03;100.00;100323.81;1652033;85;20999;-79
2022/02/22 05:21:53;;;;;;;55.03;30.80;;;;;;;2.71;100.00;100318.92;1645072;84;21171;-77
2022/02/22 05:24:20;;;;;;;57.78;29.23;;;;;;;2.50;100.00;100324.14;1639713;85;21084;-78
2022/02/22 05:26:47;;;;;;;50.35;28.42;;;;;;;2.40;100.00;100323.74;1630653;86;21606;-78
2022/02/22 05:29:14;;;;;;;54.00;28.85;;;;;;;2.28;100.00;100321.75;1619657;87;21079;-77
2022/02/22 05:31:41;;;;;;;52.70;26.75;;;;;;;2.22;100.00;100324.13;1650056;85;21077;-77
2022/02/22 05:34:08;;;;;;;56.37;30.75;;;;;;;2.14;100.00;100318.04;1653930;84;21531;-77
2022/02/22 05:36:36;;;;;;;58.35;30.12;;;;;;;2.08;100.00;100314.93;1645282;84;21007;-77
2022/02/22 05:39:05;;;;;;;55.98;30.20;;;;;;;2.03;100.00;100315.13;1641645;85;21139;-79
2022/02/22 05:41:32;;;;;;;60.83;30.97;;;;;;;1.99;100.00;100320.86;1630433;85;21175;-78
2022/02/22 05:43:59;;;;;;;67.80;35.28;;;;;;;1.95;100.00;100322.34;1630813;85;21528;-77
2022/02/22 05:46:26;;;;;;;74.20;35.08;;;;;;;1.87;100.00;100322.23;1644682;85;21113;-80
2022/02/22 05:48:53;;;;;;;66.22;35.10;;;;;;;1.84;100.00;100317.22;1650854;85;21677;-78
2022/02/22 05:51:20;;;;;;;71.70;33.70;;;;;;;1.73;100.00;100318.11;1630146;86;21164;-78
2022/02/22 05:53:48;;;;;;;70.42;33.70;;;;;;;1.73;100.00;100318.11;1652490;86;21049;-80
2022/02/22 05:56:15;;;;;;;70.35;35.15;;;;;;;1.70;100.00;100313.95;1655224;85;21103;-80
2022/02/22 05:58:43;;;;;;;64.92;31.25;;;;;;;1.68;100.00;100317.48;1671036;83;21153;-78
2022/02/22 06:01:10;;;;;;;70.20;33.20;;;;;;;1.67;100.00;100326.08;1650221;83;21039;-78
2022/02/22 06:03:37;;;;;;;71.53;34.18;;;;;;;1.69;100.00;100329.43;1629816;85;21814;-77
2022/02/22 06:06:05;;;;;;;65.40;31.52;;;;;;;1.71;100.00;100322.50;1650440;83;21541;-78
2022/02/22 06:08:35;;;;;;;62.85;32.33;;;;;;;1.74;100.00;100331.34;1649790;85;21328;-77
2022/02/22 06:11:02;;;;;;;61.85;30.85;;;;;;;1.77;100.00;100335.50;1608658;87;21069;-78
2022/02/22 06:13:30;;;;;;;68.07;32.58;;;;;;;1.78;100.00;100334.61;1625814;86;21330;-78
2022/02/22 06:15:57;;;;;;;63.83;30.82;;;;;;;1.77;100.00;100328.66;1672746;83;21158;-79
2022/02/22 06:18:25;;;;;;;64.50;32.45;;;;;;;1.77;100.00;100323.52;1619515;86;21076;-77
2022/02/22 06:20:52;;;;;;;63.30;31.85;;;;;;;1.73;100.00;100321.97;1679370;83;21098;-77
2022/02/22 06:23:19;;;;;;;69.77;32.60;;;;;;;1.74;100.00;100323.64;1680932;83;21064;-78
2022/02/22 06:25:46;;;;;;;60.55;30.30;;;;;;;1.75;100.00;100319.36;1686320;83;21541;-79
2022/02/22 06:28:13;;;;;;;50.23;27.02;;;;;;;1.73;100.00;100319.40;1679732;83;21632;-78
2022/02/22 06:30:40;;;;;;;51.20;28.45;;;;;;;1.71;100.00;100322.50;1661903;85;21063;-77
2022/02/22 06:33:08;;;;;;;45.98;25.45;;;;;;;1.72;100.00;100324.17;1660311;85;21099;-77
2022/02/22 06:35:35;;;;;;;43.28;25.48;;;;;;;1.72;100.00;100324.17;1657974;83;21063;-77
2022/02/22 06:38:02;;;;;;;39.10;21.97;;;;;;;1.77;100.00;100335.50;1658296;85;21127;-76
2022/02/22 06:40:30;;;;;;;35.70;22.10;;;;;;;1.82;100.00;100333.59;1635772;86;21142;-78
2022/02/22 06:42:58;;;;;;;31.82;19.80;;;;;;;1.86;100.00;100335.11;1625734;86;21036;-80
2022/02/22 06:45:25;;;;;;;31.33;20.27;;;;;;;1.91;100.00;100331.91;1651574;86;21151;-79
2022/02/22 06:47:52;;;;;;;30.37;19.75;;;;;;;1.97;100.00;100329.07;1651617;86;21086;-79
2022/02/22 06:50:19;;;;;;;26.40;18.90;;;;;;;2.02;100.00;100335.29;1651077;85;21063;-78
2022/02/22 06:52:47;;;;;;;27.27;18.05;;;;;;;2.07;100.00;100328.20;1653614;85;21161;-77
2022/02/22 06:55:15;;;;;;;22.60;16.52;;;;;;;2.14;100.00;100317.22;1625534;86;21552;-77
2022/02/22 06:57:45;;;;;;;22.20;16.55;;;;;;;2.23;100.00;100323.67;1652917;85;21136;-77
2022/02/22 07:00:14;;;;;;;;;;;;;;;2.29;100.00;100326.80;1655827;85;21016;-79
2022/02/22 07:02:42;;;;;;;26.77;16.87;;;;;;;2.36;100.00;100322.23;1649805;85;20213;-76
2022/02/22 07:05:10;;;;;;;21.68;15.23;;;;;;;2.45;100.00;100315.83;1656269;85;21682;-77
2022/02/22 07:07:39;;;;;;;21.73;16.12;;;;;;;2.48;100.00;100316.52;1639920;85;21077;-79
2022/02/22 07:10:08;;;;;;;20.23;15.48;;;;;;;2.55;100.00;100311.08;1655240;85;21030;-77
2022/02/22 07:12:36;;;;;;;20.60;16.10;;;;;;;2.60;100.00;100316.86;1629104;86;21063;-77
2022/02/22 07:15:05;;;;;;;20.20;15.35;;;;;;;2.75;100.00;100323.86;1653137;85;21092;-78
2022/02/22 07:17:32;;;;;;;19.70;16.35;;;;;;;2.90;100.00;100315.03;1633401;85;21037;-78
2022/02/22 07:19:59;;;;;;;19.55;15.48;;;;;;;3.06;100.00;100312.09;1617443;87;21106;-77
2022/02/22 07:22:26;;;;;;;19.70;15.78;;;;;;;3.21;100.00;100319.97;1605887;87;21690;-78
2022/02/22 07:24:53;;;;;;;19.45;15.28;;;;;;;3.32;100.00;100325.44;1646189;85;21106;-77
2022/02/22 07:27:20;;;;;;;19.30;14.53;;;;;;;3.41;100.00;100330.09;1639950;84;21103;-79
2022/02/22 07:29:48;;;;;;;19.55;15.28;;;;;;;3.45;100.00;100317.47;1620662;85;21167;-77
2022/02/22 07:32:17;;;;;;;19.35;15.00;;;;;;;3.51;100.00;100311.63;1625535;86;21107;-76
2022/02/22 07:34:44;;;;;;;16.52;13.72;;;;;;;3.56;100.00;100321.25;1618339;86;21135;-76
2022/02/22 07:37:11;;;;;;;19.57;13.85;;;;;;;3.60;100.00;100327.46;1616109;86;21531;-77
2022/02/22 07:39:38;;;;;;;17.80;13.68;;;;;;;3.69;100.00;100328.72;1641208;84;21525;-77
2022/02/22 07:42:07;;;;;;;17.42;14.15;;;;;;;3.81;100.00;100326.41;1626510;86;21857;-78
2022/02/22 07:44:36;;;;;;;17.57;14.20;;;;;;;3.92;100.00;100334.44;1600214;89;21091;-78
2022/02/22 07:47:03;;;;;;;17.60;13.43;;;;;;;4.02;100.00;100330.91;1654164;85;21172;-77
2022/02/22 07:49:32;;;;;;;18.00;13.48;;;;;;;4.10;100.00;100327.05;1644024;84;21171;-79
2022/02/22 07:51:59;;;;;;;20.57;14.60;;;;;;;4.22;100.00;100324.70;1633728;85;21166;-78
2022/02/22 07:54:26;;;;;;;16.95;14.33;;;;;;;4.34;100.00;100318.91;1637465;85;21153;-77
2022/02/22 07:56:53;;;;;;;18.23;14.85;;;;;;;4.48;100.00;100317.33;1630769;85;21577;-77
2022/02/22 07:59:20;;;;;;;18.52;14.68;;;;;;;4.55;100.00;100307.90;1617794;85;21823;-78
2022/02/22 08:01:49;;;;;;;16.62;14.15;;;;;;;4.62;100.00;100310.13;1630461;85;21581;-78
2022/02/22 08:04:17;;;;;;;18.23;14.63;;;;;;;4.71;100.00;100310.92;1631136;85;22608;-78
2022/02/22 08:06:44;;;;;;;20.75;15.45;;;;;;;4.84;100.00;100306.73;1639646;84;21182;-79
2022/02/22 08:09:46;;;;;;;19.82;14.13;;;;;;;4.99;100.00;100302.91;1631411;85;21039;-77
2022/02/22 08:12:14;;;;;;;19.17;15.23;;;;;;;5.11;100.00;100307.83;1632748;85;21061;-77
2022/02/22 08:14:42;;;;;;;23.40;15.83;;;;;;;5.20;100.00;100298.27;1600964;86;21104;-77
2022/02/22 08:17:10;;;;;;;23.85;19.87;;;;;;;5.24;100.00;100292.02;1641623;86;21029;-77
2022/02/22 08:19:37;;;;;;;22.10;18.23;;;;;;;5.24;100.00;100289.45;1654088;85;21155;-79
2022/02/22 08:22:04;;;;;;;25.10;19.37;;;;;;;5.23;100.00;100285.64;1643189;84;21010;-76
2022/02/22 08:24:32;;;;;;;25.57;20.00;;;;;;;5.22;100.00;100280.95;1612085;85;21058;-78
2022/02/22 08:27:00;;;;;;;28.47;21.85;;;;;;;5.24;100.00;100279.12;1632976;85;21079;-79
2022/02/22 08:29:27;;;;;;;27.42;21.30;;;;;;;5.29;100.00;100280.96;1648105;84;21229;-79
2022/02/22 08:31:54;;;;;;;26.57;22.10;;;;;;;5.33;100.00;100285.01;1610492;86;21192;-79
2022/02/22 08:34:21;;;;;;;25.85;21.57;;;;;;;5.40;100.00;100285.97;1611990;87;21138;-77
2022/02/22 08:36:49;;;;;;;26.70;21.73;;;;;;;5.44;100.00;100280.53;1598366;86;21046;-77
2022/02/22 08:39:16;;;;;;;27.20;22.35;;;;;;;5.47;100.00;100282.91;1649955;83;21016;-79
2022/02/22 08:41:43;;;;;;;26.20;21.40;;;;;;;5.50;100.00;100284.48;1634989;86;21109;-77
2022/02/22 08:44:10;;;;;;;24.80;20.23;;;;;;;5.54;100.00;100280.81;1630191;86;21539;-78
2022/02/22 08:46:37;;;;;;;25.55;19.90;;;;;;;5.59;100.00;100274.90;1662852;84;21916;-78
2022/02/22 08:49:04;;;;;;;22.37;18.45;;;;;;;5.69;100.00;100272.59;1639244;85;21213;-77
2022/02/22 08:51:31;;;;;;;23.77;18.23;;;;;;;5.81;100.00;100267.98;1658590;85;21596;-76
2022/02/22 08:53:58;;;;;;;22.32;17.48;;;;;;;5.93;100.00;100266.41;1632568;87;21081;-78
2022/02/22 08:56:25;;;;;;;27.93;18.15;;;;;;;6.13;100.00;100266.95;1609805;87;21771;-77
2022/02/22 08:58:53;;;;;;;25.45;18.35;;;;;;;6.30;100.00;100267.20;1646934;85;21600;-77
2022/02/22 09:01:20;;;;;;;24.50;18.40;;;;;;;6.41;100.00;100260.06;1639820;85;21104;-78
2022/02/22 09:03:48;;;;;;;26.10;18.62;;;;;;;6.48;100.00;100261.33;1639892;85;21121;-77
2022/02/22 09:06:15;;;;;;;26.77;20.00;;;;;;;6.52;100.00;100256.34;1628389;86;21242;-76
2022/02/22 09:08:42;;;;;;;26.50;18.85;;;;;;;6.57;100.00;100252.98;1600605;87;21760;-77
2022/02/22 09:11:09;;;;;;;26.40;19.17;;;;;;;6.67;100.00;100251.11;1634338;87;21042;-77
2022/02/22 09:13:36;;;;;;;24.65;19.35;;;;;;;6.75;100.00;100241.09;1578814;87;21213;-78
2022/02/22 09:16:04;;;;;;;26.15;19.57;;;;;;;6.85;100.00;100238.23;1594010;86;21068;-77
2022/02/22 09:18:31;;;;;;;31.27;20.27;;;;;;;6.93;100.00;100233.39;1645951;84;21528;-78
2022/02/22 09:20:58;;;;;;;25.40;18.92;;;;;;;7.00;100.00;100233.83;1637758;85;21136;-77
2022/02/22 09:23:25;;;;;;;26.62;18.77;;;;;;;7.05;100.00;100232.23;1635376;85;21052;-77
2022/02/22 09:25:52;;;;;;;26.97;19.65;;;;;;;7.12;100.00;100238.66;1613891;86;21481;-76
2022/02/22 09:28:20;;;;;;;27.17;19.27;;;;;;;7.17;100.00;100241.75;1619097;85;21081;-76
2022/02/22 09:30:47;;;;;;;25.95;19.10;;;;;;;7.22;100.00;100248.77;1638583;86;21159;-77
2022/02/22 09:33:15;;;;;;;28.47;19.60;;;;;;;7.26;100.00;100256.68;1610846;85;21170;-79
2022/02/22 09:35:44;;;;;;;22.87;17.15;;;;;;;7.31;100.00;100251.67;1633693;86;21163;-79
2022/02/22 09:38:11;;;;;;;28.55;19.75;;;;;;;7.39;100.00;100244.22;1626618;85;21216;-78
2022/02/22 09:40:39;;;;;;;29.00;20.02;;;;;;;7.58;100.00;100232.12;1634497;85;21501;-77
2022/02/22 09:43:06;;;;;;;27.02;19.12;;;;;;;7.79;100.00;100236.30;1650685;84;21094;-77
2022/02/22 09:45:33;;;;;;;32.70;19.15;;;;;;;7.93;100.00;100237.09;1627021;86;21173;-77
2022/02/22 09:48:04;;;;;;;25.62;19.00;;;;;;;8.00;100.00;100226.20;1633348;85;21107;-79
2022/02/22 09:50:35;;;;;;;26.82;18.55;;;;;;;8.07;100.00;100220.57;1634720;85;21713;-77
2022/02/22 09:53:02;;;;;;;28.42;19.52;;;;;;;8.11;100.00;100215.51;1639733;86;21083;-78
2022/02/22 09:55:29;;;;;;;25.48;18.45;;;;;;;8.10;100.00;100207.37;1620278;86;21107;-77
2022/02/22 09:57:57;;;;;;;27.35;19.40;;;;;;;8.08;100.00;100202.78;1599474;86;21156;-78
2022/02/22 10:00:32;;;;;;;30.57;20.02;;;;;;;8.01;100.00;100207.56;1622159;86;21138;-76
2022/02/22 10:02:59;;;;;;;30.00;19.25;;;;;;;8.00;100.00;100204.61;1628640;87;21105;-77
2022/02/22 10:05:29;;;;;;;26.40;18.30;;;;;;;8.07;100.00;100196.75;1631737;86;21050;-78
2022/02/22 10:08:00;;;;;;;25.62;18.73;;;;;;;8.13;100.00;100200.20;1640384;85;21069;-76
2022/02/22 10:10:36;;;;;;;26.10;18.05;;;;;;;8.22;100.00;100206.50;1658696;86;21861;-79
2022/02/22 10:13:06;;;;;;;30.43;18.92;;;;;;;8.28;100.00;100198.27;1657931;85;21093;-77
2022/02/22 10:15:42;;;;;;;32.53;20.53;;;;;;;8.33;100.00;100200.54;1658720;85;21076;-77
2022/02/22 10:18:12;;;;;;;35.35;19.70;;;;;;;8.37;100.00;100199.39;1658770;85;21507;-76
2022/02/22 10:20:39;;;;;;;33.42;19.05;;;;;;;8.43;100.00;100205.42;1659001;86;21484;-77
2022/02/22 10:23:07;;;;;;;28.00;19.20;;;;;;;8.51;100.00;100200.54;1658918;86;21787;-79
2022/02/22 10:25:36;;;;;;;30.40;18.48;;;;;;;8.55;100.00;100198.55;1658894;86;21045;-77
2022/02/22 10:28:04;;;;;;;28.67;18.23;;;;;;;8.59;100.00;100204.34;1658850;85;21061;-78
2022/02/22 10:30:39;;;;;;;33.02;19.20;;;;;;;8.59;100.00;100195.25;1658763;86;21769;-76
2022/02/22 10:33:22;;;;;;;28.23;18.57;;;;;;;8.63;100.00;100194.08;1658637;85;21076;-80
2022/02/22 10:35:58;;;;;;;30.32;18.90;;;;;;;8.74;100.00;100199.77;1641541;84;21588;-79
2022/02/22 10:38:29;;;;;;;31.48;19.55;;;;;;;8.77;100.00;100201.66;1625963;85;21077;-77
2022/02/22 10:41:14;;;;;;;28.35;18.00;;;;;;;8.77;100.00;100204.26;1637092;85;22033;-77
2022/02/22 10:43:40;;;;;;;29.37;19.60;;;;;;;8.81;100.00;100205.70;1628450;86;21623;-78
2022/02/22 10:46:11;;;;;;;32.63;19.62;;;;;;;8.87;100.00;100210.07;1626012;85;21132;-76
2022/02/22 10:48:43;;;;;;;33.45;20.85;;;;;;;8.94;100.00;100209.97;1627376;85;21231;-81
2022/02/22 10:51:14;;;;;;;31.97;20.10;;;;;;;8.99;100.00;100209.17;1627733;86;21085;-77
2022/02/22 10:53:49;;;;;;;;;;;;;;;9.02;100.00;100204.22;1648212;86;21133;-78
2022/02/22 10:56:18;;;;;;;30.37;18.75;;;;;;;9.00;100.00;100205.16;1657059;85;20173;-76
2022/02/22 10:58:46;;;;;;;30.08;18.52;;;;;;;8.99;100.00;100209.17;1658222;85;21045;-77
2022/02/22 11:01:19;;;;;;;25.43;17.05;;;;;;;8.97;100.00;100205.38;1626598;86;21893;-77
2022/02/22 11:03:46;;;;;;;34.53;18.37;;;;;;;8.92;100.00;100208.80;1654723;85;21094;-77
2022/02/22 11:06:14;;;;;;;28.60;18.73;;;;;;;8.94;100.00;100212.56;1644080;86;21540;-77
2022/02/22 11:08:46;;;;;;;31.10;19.67;;;;;;;8.93;100.00;100206.55;1643895;86;21067;-78
2022/02/22 11:11:34;;;;;;;35.45;22.22;;;;;;;8.90;100.00;100208.55;1653360;85;21101;-77
2022/02/22 11:14:08;;;;;;;34.90;23.38;;;;;;;8.86;100.00;100206.66;1658153;85;21221;-76